createdAt,value
2022-10-23T00:02:02.269Z,12.60
2022-10-23T00:04:30.474Z,12.60
2022-10-23T00:06:58.491Z,12.60
2022-10-23T00:09:26.718Z,12.60
2022-10-23T00:11:55.029Z,12.60
2022-10-23T00:14:25.835Z,12.60
2022-10-23T00:16:54.262Z,12.60
2022-10-23T00:19:23.711Z,12.60
2022-10-23T00:21:51.737Z,12.50
2022-10-23T00:24:19.828Z,12.50
2022-10-23T00:26:50.460Z,12.50
2022-10-23T00:29:18.645Z,12.50
2022-10-23T00:31:46.634Z,12.50
2022-10-23T00:34:14.688Z,12.40
2022-10-23T00:36:44.070Z,12.40
2022-10-23T00:39:12.154Z,12.40
2022-10-23T00:41:40.326Z,12.40
2022-10-23T00:44:11.632Z,12.40
2022-10-23T00:46:40.445Z,12.40
2022-10-23T00:49:09.015Z,12.40
2022-10-23T00:51:40.159Z,12.40
2022-10-23T00:54:23.400Z,12.40
2022-10-23T00:56:53.833Z,12.40
2022-10-23T00:59:21.971Z,12.40
2022-10-23T01:01:50.117Z,12.40
2022-10-23T01:04:18.568Z,12.40
2022-10-23T01:06:56.101Z,12.40
2022-10-23T01:09:33.454Z,12.30
2022-10-23T01:12:09.608Z,12.40
2022-10-23T01:14:44.158Z,12.30
2022-10-23T01:17:20.909Z,12.30
2022-10-23T01:20:02.156Z,12.30
2022-10-23T01:22:47.825Z,12.30
2022-10-23T01:25:30.094Z,12.30
2022-10-23T01:28:03.803Z,12.30
2022-10-23T01:30:34.113Z,12.30
2022-10-23T01:33:07.815Z,12.20
2022-10-23T01:35:38.846Z,12.20
2022-10-23T01:38:10.561Z,12.20
2022-10-23T01:40:45.787Z,12.20
2022-10-23T01:43:19.118Z,12.20
2022-10-23T01:45:50.821Z,12.20
2022-10-23T01:48:24.721Z,12.10
2022-10-23T01:50:55.205Z,12.10
2022-10-23T01:53:24.134Z,12.10
2022-10-23T01:55:53.048Z,12.00
2022-10-23T01:58:24.227Z,12.00
2022-10-23T02:00:53.546Z,12.00
2022-10-23T02:03:23.130Z,12.00
2022-10-23T02:05:51.202Z,12.00
2022-10-23T02:08:19.369Z,12.00
2022-10-23T02:10:52.831Z,12.00
2022-10-23T02:13:27.286Z,12.00
2022-10-23T02:16:04.578Z,12.00
2022-10-23T02:18:37.608Z,12.00
2022-10-23T02:21:10.821Z,12.00
2022-10-23T02:23:45.105Z,12.00
2022-10-23T02:26:19.169Z,12.00
2022-10-23T02:28:51.848Z,12.00
2022-10-23T02:31:23.118Z,12.00
2022-10-23T02:33:51.331Z,12.00
2022-10-23T02:36:20.383Z,12.00
2022-10-23T02:38:48.622Z,12.00
2022-10-23T02:41:43.451Z,12.00
2022-10-23T02:44:34.312Z,12.00
2022-10-23T02:47:18.103Z,11.90
2022-10-23T02:49:52.853Z,11.90
2022-10-23T02:52:25.258Z,11.90
2022-10-23T02:55:12.383Z,11.90
2022-10-23T02:57:45.762Z,11.90
2022-10-23T03:00:17.720Z,11.90
2022-10-23T03:02:47.832Z,12.00
2022-10-23T03:05:19.311Z,12.00
2022-10-23T03:07:47.968Z,11.90
2022-10-23T03:10:16.314Z,11.90
2022-10-23T03:12:44.892Z,12.00
2022-10-23T03:15:14.405Z,12.00
2022-10-23T03:17:42.806Z,11.90
2022-10-23T03:20:11.807Z,11.90
2022-10-23T03:22:40.245Z,11.90
2022-10-23T03:25:09.322Z,11.90
2022-10-23T03:27:37.642Z,11.80
2022-10-23T03:30:07.197Z,11.80
2022-10-23T03:32:36.531Z,11.80
2022-10-23T03:35:05.264Z,11.80
2022-10-23T03:37:33.270Z,11.80
2022-10-23T03:40:01.252Z,11.80
2022-10-23T03:42:29.275Z,11.70
2022-10-23T03:44:57.206Z,11.70
2022-10-23T03:47:25.209Z,11.70
2022-10-23T03:49:54.564Z,11.70
2022-10-23T03:52:22.548Z,11.70
2022-10-23T03:54:50.513Z,11.70
2022-10-23T03:57:18.487Z,11.60
2022-10-23T03:59:46.441Z,11.70
2022-10-23T04:02:14.420Z,11.70
2022-10-23T04:04:42.460Z,11.60
2022-10-23T04:07:12.040Z,11.60
2022-10-23T04:09:40.016Z,11.60
2022-10-23T04:12:09.237Z,11.60
2022-10-23T04:14:37.203Z,11.60
2022-10-23T04:17:05.172Z,11.50
2022-10-23T04:19:33.147Z,11.50
2022-10-23T04:22:01.232Z,11.50
2022-10-23T04:24:30.788Z,11.50
2022-10-23T04:26:58.761Z,11.40
2022-10-23T04:29:28.483Z,11.40
2022-10-23T04:31:56.448Z,11.40
2022-10-23T04:34:24.499Z,11.40
2022-10-23T04:36:52.466Z,11.30
2022-10-23T04:39:20.698Z,11.30
2022-10-23T04:41:50.010Z,11.30
2022-10-23T04:44:17.960Z,11.20
2022-10-23T04:46:45.959Z,11.30
2022-10-23T04:49:13.948Z,11.20
2022-10-23T04:51:41.877Z,11.20
2022-10-23T04:54:10.530Z,11.20
2022-10-23T04:56:38.531Z,11.20
2022-10-23T04:59:07.951Z,11.20
2022-10-23T05:01:36.016Z,11.20
2022-10-23T05:04:04.161Z,11.20
2022-10-23T05:06:32.147Z,11.20
2022-10-23T05:09:00.136Z,11.10
2022-10-23T05:11:28.088Z,11.10
2022-10-23T05:13:56.040Z,11.10
2022-10-23T05:16:33.503Z,11.10
2022-10-23T05:19:02.058Z,11.00
2022-10-23T05:21:32.857Z,11.00
2022-10-23T05:24:02.105Z,11.00
2022-10-23T05:26:30.670Z,11.00
2022-10-23T05:28:58.924Z,10.90
2022-10-23T05:31:28.376Z,10.90
2022-10-23T05:33:57.231Z,10.90
2022-10-23T05:36:26.668Z,10.90
2022-10-23T05:38:55.365Z,10.90
2022-10-23T05:41:23.515Z,10.90
2022-10-23T05:43:51.512Z,10.80
2022-10-23T05:46:19.458Z,10.80
2022-10-23T05:48:51.310Z,10.90
2022-10-23T05:51:22.225Z,10.90
2022-10-23T05:53:50.286Z,10.90
2022-10-23T05:56:18.448Z,10.80
2022-10-23T05:58:47.046Z,10.80
2022-10-23T06:01:17.395Z,10.80
2022-10-23T06:03:45.428Z,10.80
2022-10-23T06:06:14.748Z,10.70
2022-10-23T06:08:42.687Z,10.70
2022-10-23T06:11:12.670Z,10.70
2022-10-23T06:13:43.615Z,10.70
2022-10-23T06:16:13.519Z,10.70
2022-10-23T06:18:41.627Z,10.70
2022-10-23T06:21:09.932Z,10.80
2022-10-23T06:23:40.763Z,10.70
2022-10-23T06:26:11.233Z,10.80
2022-10-23T06:28:39.484Z,10.80
2022-10-23T06:31:08.498Z,10.90
2022-10-23T06:33:37.287Z,10.90
2022-10-23T06:36:08.428Z,10.90
2022-10-23T06:38:37.476Z,11.00
2022-10-23T06:41:08.214Z,11.00
2022-10-23T06:43:36.178Z,11.00
2022-10-23T06:46:05.484Z,11.10
2022-10-23T06:48:34.084Z,11.10
2022-10-23T06:51:07.485Z,11.10
2022-10-23T06:53:36.202Z,11.20
2022-10-23T06:56:07.520Z,11.20
2022-10-23T06:58:36.634Z,11.20
2022-10-23T07:01:07.377Z,11.30
2022-10-23T07:03:35.974Z,11.30
2022-10-23T07:06:04.607Z,11.30
2022-10-23T07:08:33.029Z,11.40
2022-10-23T07:11:04.672Z,11.40
2022-10-23T07:13:35.360Z,11.50
2022-10-23T07:16:11.483Z,11.50
2022-10-23T07:18:39.529Z,11.50
2022-10-23T07:21:07.692Z,11.60
2022-10-23T07:23:36.009Z,11.60
2022-10-23T07:26:08.609Z,11.70
2022-10-23T07:28:41.320Z,11.80
2022-10-23T07:31:09.986Z,11.80
2022-10-23T07:33:38.339Z,11.90
2022-10-23T07:36:08.099Z,12.00
2022-10-23T07:38:36.903Z,12.00
2022-10-23T07:41:08.854Z,12.10
2022-10-23T07:43:41.270Z,12.10
2022-10-23T07:46:10.451Z,12.10
2022-10-23T07:48:39.255Z,12.10
2022-10-23T07:51:10.745Z,12.20
2022-10-23T07:53:39.570Z,12.20
2022-10-23T07:56:14.937Z,12.30
2022-10-23T07:58:44.515Z,12.30
2022-10-23T08:01:18.450Z,12.40
2022-10-23T08:03:46.703Z,12.50
2022-10-23T08:06:14.843Z,12.60
2022-10-23T08:08:42.957Z,12.60
2022-10-23T08:11:13.607Z,12.70
2022-10-23T08:13:42.257Z,12.80
2022-10-23T08:16:11.637Z,12.90
2022-10-23T08:18:41.377Z,12.90
2022-10-23T08:21:09.637Z,13.00
2022-10-23T08:23:37.640Z,13.10
2022-10-23T08:26:07.500Z,13.20
2022-10-23T08:28:36.200Z,13.20
2022-10-23T08:31:08.850Z,13.30
2022-10-23T08:34:01.755Z,13.40
2022-10-23T08:36:30.483Z,13.50
2022-10-23T08:38:59.227Z,13.60
2022-10-23T08:41:30.536Z,13.70
2022-10-23T08:44:05.475Z,13.80
2022-10-23T08:46:38.489Z,13.90
2022-10-23T08:49:21.274Z,14.00
2022-10-23T08:51:51.761Z,14.10
2022-10-23T08:54:23.433Z,14.20
2022-10-23T08:56:54.713Z,14.30
2022-10-23T08:59:28.812Z,14.40
2022-10-23T09:02:02.299Z,14.60
2022-10-23T09:04:32.802Z,14.70
2022-10-23T09:10:04.559Z,14.90
2022-10-23T09:12:32.926Z,15.00
2022-10-23T09:15:12.391Z,15.10
2022-10-23T09:17:43.331Z,15.10
2022-10-23T09:20:21.411Z,15.20
2022-10-23T09:22:51.070Z,15.30
2022-10-23T09:25:21.476Z,15.40
2022-10-23T09:27:53.264Z,15.40
2022-10-23T09:30:30.435Z,15.50
2022-10-23T09:32:58.652Z,15.60
2022-10-23T09:35:30.767Z,15.70
2022-10-23T09:37:59.634Z,15.80
2022-10-23T09:40:34.130Z,15.90
2022-10-23T09:43:04.898Z,16.00
2022-10-23T09:45:35.706Z,16.10
2022-10-23T09:48:20.639Z,16.10
2022-10-23T09:50:54.698Z,16.20
2022-10-23T09:53:33.938Z,16.30
2022-10-23T09:56:04.283Z,16.30
2022-10-23T09:58:36.242Z,16.30
2022-10-23T10:01:05.398Z,16.40
2022-10-23T10:03:33.813Z,16.40
2022-10-23T10:06:05.642Z,16.50
2022-10-23T10:08:42.212Z,16.60
2022-10-23T10:11:17.053Z,16.60
2022-10-23T10:14:18.967Z,16.70
2022-10-23T10:16:52.772Z,16.80
2022-10-23T10:19:31.301Z,16.80
2022-10-23T10:22:09.758Z,16.90
2022-10-23T10:24:44.620Z,17.00
2022-10-23T10:27:28.740Z,17.00
2022-10-23T10:30:06.137Z,17.10
2022-10-23T10:32:41.330Z,17.20
2022-10-23T10:35:26.902Z,17.20
2022-10-23T10:38:20.696Z,17.30
2022-10-23T10:41:01.988Z,17.40
2022-10-23T10:43:43.639Z,17.40
2022-10-23T10:46:19.574Z,17.50
2022-10-23T10:48:52.792Z,17.50
2022-10-23T10:51:30.064Z,17.50
2022-10-23T10:54:23.845Z,17.60
2022-10-23T10:56:51.930Z,17.70
2022-10-23T10:59:28.138Z,17.70
2022-10-23T11:02:01.215Z,17.80
2022-10-23T11:04:36.811Z,17.80
2022-10-23T11:07:12.557Z,17.90
2022-10-23T11:09:43.568Z,17.90
2022-10-23T11:12:18.873Z,17.80
2022-10-23T11:14:47.028Z,17.80
2022-10-23T11:17:20.014Z,17.70
2022-10-23T11:19:53.941Z,17.70
2022-10-23T11:22:28.925Z,17.60
2022-10-23T11:25:17.325Z,17.60
2022-10-23T11:28:03.356Z,17.50
2022-10-23T11:30:40.569Z,17.50
2022-10-23T11:33:47.917Z,17.50
2022-10-23T11:36:19.567Z,17.50
2022-10-23T11:38:50.200Z,17.60
2022-10-23T11:41:25.506Z,17.70
2022-10-23T11:43:57.043Z,17.90
2022-10-23T11:46:36.271Z,17.90
2022-10-23T11:49:06.550Z,18.00
2022-10-23T11:51:36.515Z,18.10
2022-10-23T11:54:22.366Z,18.10
2022-10-23T11:56:57.156Z,18.10
2022-10-23T11:59:30.391Z,18.20
2022-10-23T12:02:00.676Z,18.20
2022-10-23T12:04:36.987Z,18.20
2022-10-23T12:07:17.544Z,18.30
2022-10-23T12:09:47.643Z,18.40
2022-10-23T12:12:26.962Z,18.40
2022-10-23T12:14:55.441Z,18.40
2022-10-23T12:17:35.855Z,18.50
2022-10-23T12:20:21.254Z,18.50
2022-10-23T12:23:02.613Z,18.50
2022-10-23T12:25:39.820Z,18.40
2022-10-23T12:28:17.255Z,18.40
2022-10-23T12:33:27.800Z,18.20
2022-10-23T12:36:21.889Z,18.10
2022-10-23T12:38:50.816Z,18.10
2022-10-23T12:41:21.474Z,18.10
2022-10-23T12:43:56.176Z,18.00
2022-10-23T12:46:31.702Z,18.00
2022-10-23T12:49:02.337Z,18.00
2022-10-23T12:51:32.419Z,18.00
2022-10-23T12:54:01.054Z,18.00
2022-10-23T12:56:35.706Z,17.90
2022-10-23T12:59:11.864Z,17.90
2022-10-23T13:01:41.659Z,17.90
2022-10-23T13:04:23.025Z,17.80
2022-10-23T13:06:52.811Z,17.80
2022-10-23T13:09:25.155Z,17.80
2022-10-23T13:11:53.938Z,17.80
2022-10-23T13:14:34.332Z,17.80
2022-10-23T13:17:03.962Z,17.80
2022-10-23T13:19:31.943Z,17.80
2022-10-23T13:22:01.263Z,17.80
2022-10-23T13:24:30.782Z,17.80
2022-10-23T13:27:00.149Z,17.80
2022-10-23T13:29:30.625Z,17.80
2022-10-23T13:32:11.410Z,17.80
2022-10-23T13:34:39.572Z,17.80
2022-10-23T13:37:25.032Z,17.80
2022-10-23T13:40:02.984Z,17.80
2022-10-23T13:42:30.971Z,17.80
2022-10-23T13:44:58.926Z,17.80
2022-10-23T13:47:28.338Z,17.80
2022-10-23T13:49:56.297Z,17.70
2022-10-23T13:52:24.557Z,17.70
2022-10-23T13:54:52.532Z,17.70
2022-10-23T13:57:20.478Z,17.70
2022-10-23T13:59:48.459Z,17.60
2022-10-23T14:02:22.157Z,17.60
2022-10-23T14:04:52.183Z,17.60
2022-10-23T14:07:20.411Z,17.60
2022-10-23T14:09:50.528Z,17.60
2022-10-23T14:12:18.961Z,17.60
2022-10-23T14:14:51.207Z,17.60
2022-10-23T14:17:19.192Z,17.50
2022-10-23T14:19:47.868Z,17.50
2022-10-23T14:22:17.989Z,17.50
2022-10-23T14:24:45.970Z,17.50
2022-10-23T14:27:13.925Z,17.50
2022-10-23T14:29:42.334Z,17.50
2022-10-23T14:32:10.495Z,17.40
2022-10-23T14:34:41.197Z,17.40
2022-10-23T14:37:09.490Z,17.40
2022-10-23T14:39:38.858Z,17.40
2022-10-23T14:42:06.935Z,17.40
2022-10-23T14:44:34.930Z,17.40
2022-10-23T14:47:03.129Z,17.30
2022-10-23T14:49:31.675Z,17.30
2022-10-23T14:51:59.620Z,17.30
2022-10-23T14:54:29.311Z,17.30
2022-10-23T14:56:58.634Z,17.30
2022-10-23T14:59:26.612Z,17.30
2022-10-23T15:04:27.649Z,17.20
2022-10-23T15:06:55.623Z,17.20
2022-10-23T15:09:23.637Z,17.10
2022-10-23T15:11:51.593Z,17.00
2022-10-23T15:14:20.920Z,17.00
2022-10-23T15:16:48.916Z,17.00
2022-10-23T15:19:18.639Z,16.90
2022-10-23T15:21:47.452Z,16.80
2022-10-23T15:24:15.784Z,16.80
2022-10-23T15:26:44.410Z,16.70
2022-10-23T15:29:14.424Z,16.60
2022-10-23T15:31:49.480Z,16.60
2022-10-23T15:34:19.972Z,16.60
2022-10-23T15:36:48.584Z,16.50
2022-10-23T15:39:18.656Z,16.50
2022-10-23T15:41:46.888Z,16.40
2022-10-23T15:44:16.845Z,16.40
2022-10-23T15:46:45.039Z,16.30
2022-10-23T15:49:14.447Z,16.20
2022-10-23T15:51:43.250Z,16.20
2022-10-23T15:54:16.422Z,16.10
2022-10-23T15:56:45.147Z,16.10
2022-10-23T15:59:13.233Z,16.00
2022-10-23T16:01:41.861Z,16.00
2022-10-23T16:04:10.321Z,16.00
2022-10-23T16:06:39.944Z,16.00
2022-10-23T16:09:07.923Z,16.00
2022-10-23T16:11:39.060Z,15.90
2022-10-23T16:14:08.331Z,15.90
2022-10-23T16:16:36.487Z,15.80
2022-10-23T16:19:06.071Z,15.80
2022-10-23T16:21:35.989Z,15.80
2022-10-23T16:24:08.724Z,15.80
2022-10-23T16:26:37.534Z,15.80
2022-10-23T16:29:07.479Z,15.70
2022-10-23T16:31:35.903Z,15.80
2022-10-23T16:34:04.842Z,15.70
2022-10-23T16:36:32.940Z,15.70
2022-10-23T16:39:03.091Z,15.70
2022-10-23T16:41:32.583Z,15.70
2022-10-23T16:44:00.654Z,15.60
2022-10-23T16:46:28.848Z,15.70
2022-10-23T16:48:56.795Z,15.60
2022-10-23T16:51:27.143Z,15.60
2022-10-23T16:53:56.513Z,15.60
2022-10-23T16:56:27.827Z,15.50
2022-10-23T17:01:28.985Z,15.50
2022-10-23T17:03:58.135Z,15.40
2022-10-23T17:06:29.106Z,15.50
2022-10-23T17:08:57.884Z,15.50
2022-10-23T17:11:28.359Z,15.40
2022-10-23T17:14:00.756Z,15.50
2022-10-23T17:16:34.842Z,15.50
2022-10-23T17:19:15.797Z,15.40
2022-10-23T17:21:54.292Z,15.40
2022-10-23T17:24:24.036Z,15.40
2022-10-23T17:26:52.049Z,15.30
2022-10-23T17:29:21.864Z,15.30
2022-10-23T17:31:51.856Z,15.30
2022-10-23T17:34:21.626Z,15.30
2022-10-23T17:36:51.003Z,15.30
2022-10-23T17:39:21.257Z,15.30
2022-10-23T17:41:49.452Z,15.30
2022-10-23T17:44:17.568Z,15.30
2022-10-23T17:46:52.359Z,15.30
2022-10-23T17:49:21.984Z,15.30
2022-10-23T17:51:53.626Z,15.30
2022-10-23T17:54:23.672Z,15.30
2022-10-23T17:56:53.561Z,15.20
2022-10-23T17:59:22.441Z,15.20
2022-10-23T18:01:52.001Z,15.20
2022-10-23T18:04:21.577Z,15.20
2022-10-23T18:06:52.425Z,15.10
2022-10-23T18:09:23.872Z,15.10
2022-10-23T18:11:52.795Z,15.10
2022-10-23T18:14:22.395Z,15.10
2022-10-23T18:16:52.489Z,15.10
2022-10-23T18:19:20.842Z,15.20
2022-10-23T18:21:49.458Z,15.10
2022-10-23T18:24:18.355Z,15.10
2022-10-23T18:26:47.902Z,15.10
2022-10-23T18:29:18.374Z,15.00
2022-10-23T18:31:48.161Z,15.00
2022-10-23T18:34:19.884Z,15.00
2022-10-23T18:36:48.818Z,15.00
2022-10-23T18:39:22.116Z,15.00
2022-10-23T18:41:52.434Z,14.90
2022-10-23T18:44:22.421Z,14.90
2022-10-23T18:46:50.930Z,14.90
2022-10-23T18:49:21.145Z,14.90
2022-10-23T18:51:49.864Z,14.90
2022-10-23T18:54:18.939Z,14.80
2022-10-23T18:56:47.836Z,14.80
2022-10-23T18:59:18.373Z,14.80
2022-10-23T19:01:46.463Z,14.80
2022-10-23T19:04:16.218Z,14.80
2022-10-23T19:06:46.666Z,14.80
2022-10-23T19:09:15.579Z,14.70
2022-10-23T19:11:45.286Z,14.70
2022-10-23T19:14:13.928Z,14.70
2022-10-23T19:16:45.422Z,14.60
2022-10-23T19:19:18.316Z,14.60
2022-10-23T19:21:48.896Z,14.60
2022-10-23T19:24:21.676Z,14.60
2022-10-23T19:26:50.510Z,14.60
2022-10-23T19:29:22.780Z,14.60
2022-10-23T19:31:51.740Z,14.60
2022-10-23T19:34:22.537Z,14.50
2022-10-23T19:36:53.347Z,14.50
2022-10-23T19:39:21.967Z,14.50
2022-10-23T19:41:51.594Z,14.50
2022-10-23T19:44:20.744Z,14.50
2022-10-23T19:46:48.814Z,14.50
2022-10-23T19:49:17.175Z,14.50
2022-10-23T19:51:50.721Z,14.50
2022-10-23T19:54:21.552Z,14.50
2022-10-23T19:56:49.907Z,14.50
2022-10-23T19:59:18.322Z,14.50
2022-10-23T20:01:49.592Z,14.50
2022-10-23T20:04:23.100Z,14.50
2022-10-23T20:06:51.060Z,14.50
2022-10-23T20:09:20.392Z,14.40
2022-10-23T20:11:49.270Z,14.40
2022-10-23T20:14:20.762Z,14.40
2022-10-23T20:16:52.216Z,14.40
2022-10-23T20:19:23.602Z,14.40
2022-10-23T20:21:51.937Z,14.40
2022-10-23T20:24:22.080Z,14.40
2022-10-23T20:26:54.325Z,14.40
2022-10-23T20:29:22.841Z,14.40
2022-10-23T20:31:51.252Z,14.40
2022-10-23T20:34:20.090Z,14.40
2022-10-23T20:36:50.325Z,14.30
2022-10-23T20:39:22.328Z,14.30
2022-10-23T20:41:51.735Z,14.40
2022-10-23T20:44:20.254Z,14.40
2022-10-23T20:46:49.172Z,14.30
2022-10-23T20:49:17.957Z,14.30
2022-10-23T20:51:47.489Z,14.30
2022-10-23T20:54:16.070Z,14.30
2022-10-23T20:56:44.288Z,14.30
2022-10-23T20:59:15.119Z,14.30
2022-10-23T21:01:44.609Z,14.30
2022-10-23T21:04:14.053Z,14.30
2022-10-23T21:07:04.426Z,14.30
2022-10-23T21:09:31.448Z,14.30
2022-10-23T21:11:59.454Z,14.30
2022-10-23T21:14:28.814Z,14.30
2022-10-23T21:16:56.782Z,14.20
2022-10-23T21:19:24.737Z,14.20
2022-10-23T21:21:52.731Z,14.20
2022-10-23T21:24:20.795Z,14.20
2022-10-23T21:26:48.808Z,14.20
2022-10-23T21:29:19.401Z,14.20
2022-10-23T21:31:55.051Z,14.20
2022-10-23T21:34:23.160Z,14.20
2022-10-23T21:37:11.852Z,14.20
2022-10-23T21:39:39.200Z,14.20
2022-10-23T21:42:07.350Z,14.20
2022-10-23T21:44:35.363Z,14.10
2022-10-23T21:47:05.120Z,14.10
2022-10-23T21:49:33.365Z,14.10
2022-10-23T21:52:01.308Z,14.10
2022-10-23T21:54:29.300Z,14.10
2022-10-23T21:56:57.299Z,14.10
2022-10-23T21:59:29.122Z,14.10
2022-10-23T22:02:00.392Z,14.10
2022-10-23T22:04:29.864Z,14.10
2022-10-23T22:06:57.869Z,14.10
2022-10-23T22:09:25.891Z,14.10
2022-10-23T22:11:55.271Z,14.10
2022-10-23T22:14:24.195Z,14.10
2022-10-23T22:16:52.220Z,14.10
2022-10-23T22:19:21.934Z,14.00
2022-10-23T22:21:51.870Z,14.00
2022-10-23T22:24:20.377Z,14.00
2022-10-23T22:26:50.048Z,14.00
2022-10-23T22:29:20.192Z,14.00
2022-10-23T22:31:50.032Z,14.00
2022-10-23T22:34:34.151Z,13.90
2022-10-23T22:37:11.083Z,13.90
2022-10-23T22:39:39.615Z,13.90
2022-10-23T22:42:07.571Z,13.90
2022-10-23T22:44:35.566Z,14.00
2022-10-23T22:47:03.583Z,13.90
2022-10-23T22:49:31.537Z,13.90
2022-10-23T22:51:59.518Z,13.90
2022-10-23T22:54:30.489Z,13.90
2022-10-23T22:56:58.740Z,13.90
2022-10-23T22:59:26.735Z,14.00
2022-10-23T23:01:55.184Z,14.00
2022-10-23T23:04:37.203Z,14.00
2022-10-23T23:07:06.396Z,14.10
2022-10-23T23:09:38.772Z,14.10
2022-10-23T23:12:07.244Z,14.20
2022-10-23T23:14:35.256Z,14.10
2022-10-23T23:17:03.215Z,14.10
2022-10-23T23:19:31.234Z,14.10
2022-10-23T23:22:00.280Z,14.10
2022-10-23T23:24:28.439Z,14.10
2022-10-23T23:26:57.815Z,14.20
2022-10-23T23:29:25.799Z,14.20
2022-10-23T23:31:53.863Z,14.20
2022-10-23T23:34:22.138Z,14.20
2022-10-23T23:36:50.098Z,14.20
2022-10-23T23:39:18.560Z,14.20
2022-10-23T23:41:46.533Z,14.30
2022-10-23T23:44:16.016Z,14.30
2022-10-23T23:46:43.961Z,14.30
2022-10-23T23:49:11.923Z,14.30
2022-10-23T23:51:39.903Z,14.30
2022-10-23T23:54:07.927Z,14.30
2022-10-23T23:56:36.061Z,14.30
2022-10-23T23:59:04.091Z,14.30
